Time;durP1;ratioP1;P1;durP2;ratioP2;P2;SDS_P1;SDS_P2;PMS_P1;PMS_P2;Temp;Humidity;BMP_temperature;BMP_pressure;BME280_temperature;BME280_humidity;BME280_pressure;Samples;Min_cycle;Max_cycle;Signal;HPM_P1;HPM_P2
2021/09/13 00:00:07;;;;;;;;;30.33;25.67;;;;;11.48;88.44;99521.81;6750166;19;2857641;-58
2021/09/13 00:02:35;;;;;;;;;25.00;23.50;;;;;12.36;83.88;99521.13;6784234;19;2843948;-58
2021/09/13 00:05:05;;;;;;;;;26.00;24.00;;;;;12.35;83.62;99527.47;6750433;19;2843919;-58
2021/09/13 00:07:34;;;;;;;;;23.00;20.50;;;;;11.89;86.17;99522.66;6747206;19;2839817;-59
2021/09/13 00:10:05;;;;;;;;;30.00;26.67;;;;;12.48;83.38;99521.09;6747529;19;3602218;-58
2021/09/13 00:12:35;;;;;;;;;28.00;26.33;;;;;12.01;84.87;99516.41;6782791;19;2853404;-58
2021/09/13 00:15:05;;;;;;;;;32.67;27.33;;;;;11.63;87.43;99520.75;6780504;19;2861682;-58
2021/09/13 00:17:34;;;;;;;;;30.67;27.33;;;;;11.76;86.90;99522.59;6782786;19;2851268;-59
2021/09/13 00:20:05;;;;;;;;;31.67;27.67;;;;;11.58;88.11;99520.19;6779678;19;3598056;-58
2021/09/13 00:22:35;;;;;;;;;46.33;35.33;;;;;11.40;89.61;99526.81;6782720;19;3641876;-59
2021/09/13 00:25:05;;;;;;;;;43.00;36.00;;;;;11.42;89.19;99522.22;6747554;19;2850174;-59
2021/09/13 00:27:35;;;;;;;;;40.00;35.67;;;;;11.98;85.96;99521.97;6779157;19;3616813;-58
2021/09/13 00:30:06;;;;;;;;;39.50;36.00;;;;;11.83;86.11;99521.22;6780176;19;2860649;-58
2021/09/13 00:32:35;;;;;;;;;28.00;26.67;;;;;11.42;88.75;99522.22;6745579;19;2848086;-58
2021/09/13 00:35:05;;;;;;;;;36.00;28.67;;;;;11.70;87.94;99515.81;6782071;19;3617839;-58
2021/09/13 00:37:35;;;;;;;;;34.00;30.00;;;;;11.77;87.19;99513.53;6780173;19;2851292;-59
2021/09/13 00:40:05;;;;;;;;;32.00;27.67;;;;;11.46;88.36;99520.19;6785375;19;3618924;-59
2021/09/13 00:42:34;;;;;;;;;26.00;25.33;;;;;11.37;88.77;99516.28;6746773;19;3586637;-58
2021/09/13 00:45:04;;;;;;;;;24.00;24.00;;;;;11.18;89.76;99516.66;6780152;19;2850161;-59
2021/09/13 00:47:35;;;;;;;;;30.00;24.00;;;;;11.12;90.37;99511.72;6747237;19;2858490;-58
2021/09/13 00:50:05;;;;;;;;;24.00;24.00;;;;;10.94;90.62;99511.09;6746164;19;2839772;-58
2021/09/13 00:52:34;;;;;;;;;26.00;22.50;;;;;10.85;90.68;99515.25;6748721;19;2839821;-58
2021/09/13 00:55:04;;;;;;;;;24.50;22.00;;;;;10.74;91.29;99505.22;6748513;19;2833484;-58
2021/09/13 00:57:34;;;;;;;;;23.00;21.00;;;;;11.04;91.02;99512.22;6747219;19;2814753;-58
2021/09/13 01:00:06;;;;;;;;;28.33;26.00;;;;;11.19;88.97;99521.94;6747066;19;2854460;-58
2021/09/13 01:02:34;;;;;;;;;22.00;21.00;;;;;10.86;90.52;99511.59;6783149;19;2498100;-58
2021/09/13 01:05:04;;;;;;;;;25.50;25.00;;;;;10.76;90.41;99516.69;6749668;19;2839749;-58
2021/09/13 01:07:32;;;;;;;;;23.00;22.00;;;;;11.26;89.04;99524.22;6746477;19;2498089;-58
2021/09/13 01:10:02;;;;;;;;;23.00;21.00;;;;;11.67;87.15;99520.56;6743960;19;2843947;-58
2021/09/13 01:12:30;;;;;;;;;23.00;20.00;;;;;11.97;85.46;99520.28;6747444;19;2498143;-58
2021/09/13 01:14:58;;;;;;;;;20.00;18.50;;;;;12.09;84.97;99516.72;6745398;19;2835615;-58
2021/09/13 01:17:26;;;;;;;;;20.00;19.00;;;;;11.64;87.05;99519.78;6749357;19;2496017;-58
2021/09/13 01:19:54;;;;;;;;;21.50;21.50;;;;;11.09;89.53;99518.16;6748202;19;2498104;-58
2021/09/13 01:22:22;;;;;;;;;20.00;17.50;;;;;11.05;89.93;99519.31;6748501;19;2489763;-59
2021/09/13 01:24:50;;;;;;;;;22.67;20.67;;;;;11.23;89.47;99505.63;6746884;19;3577247;-58
2021/09/13 01:27:19;;;;;;;;;23.50;23.50;;;;;11.53;87.87;99508.91;6748750;19;2841872;-58
2021/09/13 01:29:46;;;;;;;;;24.00;20.50;;;;;11.58;87.84;99506.75;6748983;19;2498096;-58
2021/09/13 01:32:14;;;;;;;;;26.00;23.00;;;;;11.60;87.45;99504.81;6749056;19;2498104;-59
2021/09/13 01:34:42;;;;;;;;;21.00;21.00;;;;;11.81;86.73;99509.69;6751326;19;2837725;-58
2021/09/13 01:37:11;;;;;;;;;22.00;22.00;;;;;11.59;87.16;99508.50;6748523;19;2833543;-58
2021/09/13 01:39:40;;;;;;;;;23.50;21.00;;;;;11.42;88.26;99506.09;6747767;19;2866871;-58
2021/09/13 01:42:08;;;;;;;;;23.50;21.00;;;;;11.18;88.93;99514.81;6744383;19;2841848;-58
2021/09/13 01:44:37;;;;;;;;;25.50;22.50;;;;;11.01;89.85;99517.78;6743974;19;2842870;-58
2021/09/13 01:47:05;;;;;;;;;21.50;20.00;;;;;10.79;90.17;99520.16;6745263;19;2837689;-58
2021/09/13 01:49:33;;;;;;;;;19.00;18.50;;;;;11.24;88.12;99507.31;6745223;19;2498167;-59
2021/09/13 01:52:01;;;;;;;;;25.50;21.00;;;;;10.94;89.26;99516.47;6744747;19;2839793;-58
2021/09/13 01:54:29;;;;;;;;;24.50;22.50;;;;;10.90;89.69;99515.81;6745735;19;2498136;-58
2021/09/13 01:56:56;;;;;;;;;1.67;0.00;;;;;11.05;89.98;99513.94;6753158;19;2702267;-58
2021/09/13 01:59:24;;;;;;;;;21.00;20.00;;;;;11.44;87.18;99522.97;6786462;19;2491870;-58
2021/09/13 02:01:52;;;;;;;;;19.33;19.33;;;;;10.81;89.46;99520.91;6744376;19;3562699;-58
2021/09/13 02:04:22;;;;;;;;;20.50;19.50;;;;;10.85;89.66;99526.00;6749330;19;2498215;-59
2021/09/13 02:06:50;;;;;;;;;23.50;21.50;;;;;10.33;91.83;99522.16;6747339;19;2841824;-58
2021/09/13 02:09:19;;;;;;;;;22.50;20.50;;;;;10.41;92.15;99523.50;6744941;19;2825194;-58
2021/09/13 02:11:47;;;;;;;;;19.33;14.33;;;;;10.94;90.32;99521.84;6744854;19;3548129;-58
2021/09/13 02:14:16;;;;;;;;;27.00;23.50;;;;;10.72;90.78;99522.41;6742471;19;2843916;-58
2021/09/13 02:16:43;;;;;;;;;26.00;22.00;;;;;10.59;91.51;99521.47;6746263;19;2498108;-58
2021/09/13 02:19:12;;;;;;;;;23.50;22.00;;;;;11.14;89.77;99521.41;6747034;19;2848113;-59
2021/09/13 02:21:40;;;;;;;;;22.50;22.50;;;;;11.26;88.86;99521.53;6743917;19;2836727;-58
2021/09/13 02:24:08;;;;;;;;;26.00;22.00;;;;;10.90;90.02;99520.31;6748587;19;2498100;-58
2021/09/13 02:26:36;;;;;;;;;21.50;20.00;;;;;10.80;90.33;99524.59;6748007;19;2839865;-58
2021/09/13 02:29:03;;;;;;;;;22.00;20.50;;;;;11.03;90.51;99529.28;6745308;19;2498104;-58
2021/09/13 02:31:31;;;;;;;;;21.00;20.50;;;;;11.15;89.54;99522.25;6747648;19;2833535;-58
2021/09/13 02:33:58;;;;;;;;;23.00;20.50;;;;;11.61;87.14;99528.06;6742219;19;2498136;-59
2021/09/13 02:36:26;;;;;;;;;16.00;16.00;;;;;11.58;86.64;99517.50;6749186;19;2498108;-58
2021/09/13 02:38:54;;;;;;;;;21.50;20.50;;;;;11.60;86.51;99526.34;6745793;19;2835587;-58
2021/09/13 02:41:22;;;;;;;;;24.50;22.00;;;;;11.37;87.65;99518.97;6747514;19;2496036;-59
2021/09/13 02:43:50;;;;;;;;;22.00;18.50;;;;;11.32;88.68;99518.41;6744197;19;2498132;-58
2021/09/13 02:46:18;;;;;;;;;26.00;19.00;;;;;11.28;88.68;99519.59;6751223;19;2491855;-58
2021/09/13 02:48:46;;;;;;;;;18.50;17.00;;;;;11.36;88.02;99514.56;6747346;19;2825170;-58
2021/09/13 02:51:15;;;;;;;;;25.00;20.00;;;;;10.85;90.30;99511.69;6746047;19;3570015;-58
2021/09/13 02:53:44;;;;;;;;;19.00;19.00;;;;;10.54;92.29;99517.22;6742253;19;2833507;-59
2021/09/13 02:56:11;;;;;;;;;23.00;20.00;;;;;10.48;91.89;99517.63;6745141;19;2496037;-59
2021/09/13 02:58:40;;;;;;;;;18.50;18.00;;;;;10.54;91.38;99516.38;6741468;19;2826244;-59
2021/09/13 03:01:07;;;;;;;;;22.00;21.00;;;;;10.44;91.01;99513.41;6743767;19;2496017;-58
2021/09/13 03:03:36;;;;;;;;;23.00;19.67;;;;;10.33;92.00;99522.16;6745372;19;3565898;-58
2021/09/13 03:06:05;;;;;;;;;20.50;19.50;;;;;10.16;92.61;99516.94;6743349;19;2835611;-58
2021/09/13 03:08:33;;;;;;;;;20.00;20.00;;;;;10.20;92.85;99525.69;6742575;19;2835598;-58
2021/09/13 03:11:03;;;;;;;;;22.33;21.33;;;;;10.21;92.78;99516.66;6742745;19;3577251;-58
2021/09/13 03:13:31;;;;;;;;;23.00;21.00;;;;;10.07;93.04;99514.84;6745209;19;2496052;-59
2021/09/13 03:15:58;;;;;;;;;21.50;20.00;;;;;10.10;92.73;99520.00;6746454;19;2498100;-59
2021/09/13 03:18:27;;;;;;;;;21.50;20.00;;;;;10.61;91.12;99512.34;6738576;19;2830383;-58
2021/09/13 03:20:54;;;;;;;;;23.50;20.00;;;;;10.46;91.03;99522.22;6740818;19;2498108;-58
2021/09/13 03:23:23;;;;;;;;;23.50;20.00;;;;;10.27;91.54;99524.34;6742292;19;2829376;-58
2021/09/13 03:25:51;;;;;;;;;21.00;20.00;;;;;10.15;92.44;99528.63;6740810;19;3577275;-58
2021/09/13 03:28:19;;;;;;;;;23.50;21.00;;;;;10.25;92.25;99524.44;6746961;19;2832609;-58
2021/09/13 03:30:47;;;;;;;;;24.50;20.00;;;;;10.47;92.26;99521.25;6747419;19;2498104;-55
2021/09/13 03:33:16;;;;;;;;;19.00;18.50;;;;;10.70;90.70;99532.38;6752105;19;2835571;-59
2021/09/13 03:35:43;;;;;;;;;21.00;19.00;;;;;10.88;89.84;99533.84;6751239;19;2493934;-58
2021/09/13 03:38:11;;;;;;;;;18.00;16.00;;;;;10.68;90.29;99532.44;6752034;19;2498132;-58
2021/09/13 03:40:38;;;;;;;;;21.00;21.00;;;;;10.60;90.99;99529.41;6752514;19;2496036;-59
2021/09/13 03:43:06;;;;;;;;;21.00;18.33;;;;;10.83;90.23;99529.75;6751075;19;3562637;-59
2021/09/13 03:45:34;;;;;;;;;20.50;18.00;;;;;10.83;90.51;99530.59;6745613;19;2498104;-59
2021/09/13 03:48:03;;;;;;;;;24.00;19.00;;;;;10.77;90.01;99536.38;6747631;19;2833523;-58
2021/09/13 03:50:30;;;;;;;;;27.00;21.00;;;;;10.92;88.01;99534.50;6746548;19;2489798;-59
2021/09/13 03:52:59;;;;;;;;;22.00;21.00;;;;;10.61;90.19;99536.50;6750757;19;2829341;-58
2021/09/13 03:55:26;;;;;;;;;22.00;22.00;;;;;11.06;87.72;99542.53;6750845;19;2498175;-59
2021/09/13 03:57:54;;;;;;;;;20.00;18.00;;;;;10.67;89.29;99546.00;6750777;19;2496008;-59
2021/09/13 04:00:22;;;;;;;;;18.33;18.00;;;;;10.48;90.41;99541.78;6746160;19;3556413;-59
2021/09/13 04:02:50;;;;;;;;;18.00;16.50;;;;;10.69;90.36;99547.63;6756500;19;2821035;-58
2021/09/13 04:05:22;;;;;;;;;23.00;19.00;;;;;10.83;89.64;99543.19;6747604;19;3567841;-58
2021/09/13 04:13:03;;;;;;;;;20.00;20.00;;;;;10.98;89.56;99539.50;6752005;19;2498100;-58
2021/09/13 04:15:31;;;;;;;;;21.00;17.00;;;;;10.96;89.48;99539.59;6750394;19;2824165;-59
2021/09/13 04:17:58;;;;;;;;;19.00;17.00;;;;;10.54;90.82;99540.53;6751032;19;2822101;-58
2021/09/13 04:20:26;;;;;;;;;21.00;18.00;;;;;10.48;91.89;99540.94;6750910;19;2833500;-59
2021/09/13 04:22:54;;;;;;;;;26.00;23.50;;;;;10.32;91.87;99536.53;6750149;19;2493931;-59
2021/09/13 04:25:22;;;;;;;;;25.50;21.00;;;;;10.11;92.25;99532.50;6749478;19;2839865;-59
2021/09/13 04:27:50;;;;;;;;;33.00;26.00;;;;;10.03;92.72;99535.66;6749094;19;2498132;-59
2021/09/13 04:30:20;;;;;;;;;24.00;23.00;;;;;10.03;93.03;99534.75;6749470;19;2496008;-59
2021/09/13 04:32:48;;;;;;;;;25.00;22.00;;;;;10.18;92.59;99539.16;6747011;19;2837670;-60
2021/09/13 04:35:16;;;;;;;;;25.50;21.50;;;;;10.11;92.84;99540.53;6747312;19;2852244;-60
2021/09/13 04:37:45;;;;;;;;;25.00;20.50;;;;;10.11;92.81;99537.84;6746940;19;2829372;-60
2021/09/13 04:40:14;;;;;;;;;20.00;19.00;;;;;10.10;92.47;99541.47;6748059;19;2498116;-60
2021/09/13 04:42:42;;;;;;;;;21.00;19.00;;;;;10.47;90.82;99540.06;6748448;19;2498136;-60
2021/09/13 04:45:11;;;;;;;;;24.33;20.00;;;;;10.11;91.30;99540.53;6743535;19;3558506;-58
2021/09/13 04:47:39;;;;;;;;;22.00;21.00;;;;;10.03;91.90;99534.75;6748476;19;2498112;-58
2021/09/13 04:50:08;;;;;;;;;22.00;21.00;;;;;10.13;91.63;99538.59;6745680;19;2830414;-58
2021/09/13 04:52:36;;;;;;;;;25.67;22.00;;;;;10.05;92.13;99538.22;6751703;19;2856415;-58
2021/09/13 04:55:05;;;;;;;;;27.00;22.00;;;;;10.10;92.25;99539.66;6782395;19;2845999;-58
2021/09/13 04:57:35;;;;;;;;;26.50;23.50;;;;;10.54;91.40;99546.75;6746876;19;2841828;-58
2021/09/13 05:00:04;;;;;;;;;30.50;27.50;;;;;10.78;89.69;99548.84;6749121;19;2850284;-58
2021/09/13 05:02:32;;;;;;;;;20.00;16.00;;;;;10.73;88.97;99557.19;6750839;19;2493973;-59
2021/09/13 05:05:00;;;;;;;;;22.50;21.00;;;;;10.96;88.69;99557.53;6749714;19;2834536;-58
2021/09/13 05:07:29;;;;;;;;;23.00;22.00;;;;;11.06;89.08;99561.34;6745446;19;2837793;-58
2021/09/13 05:09:56;;;;;;;;;29.50;21.00;;;;;11.40;87.26;99557.28;6745424;19;2493957;-58
2021/09/13 05:12:25;;;;;;;;;23.00;21.50;;;;;11.56;86.19;99556.25;6745422;19;2837657;-54
2021/09/13 05:14:53;;;;;;;;;23.50;21.50;;;;;11.47;87.52;99563.09;6746466;19;2833547;-55
2021/09/13 05:17:23;;;;;;;;;30.67;23.00;;;;;11.32;88.49;99565.00;6749556;19;2855401;-59
2021/09/13 05:19:51;;;;;;;;;23.50;21.50;;;;;11.41;88.96;99564.38;6778292;19;2844993;-58
2021/09/13 05:22:20;;;;;;;;;25.50;24.50;;;;;11.56;88.64;99558.94;6746466;19;2848116;-59
2021/09/13 05:24:48;;;;;;;;;20.50;19.50;;;;;11.70;88.75;99556.16;6744611;19;2837666;-59
2021/09/13 05:27:17;;;;;;;;;24.00;19.00;;;;;11.82;87.86;99560.72;6745156;19;2825158;-59
2021/09/13 05:29:44;;;;;;;;;24.00;21.00;;;;;12.06;87.43;99558.19;6749133;19;2496059;-58
2021/09/13 05:32:12;;;;;;;;;19.50;19.50;;;;;12.21;86.30;99558.06;6747001;19;2498116;-59
2021/09/13 05:34:41;;;;;;;;;25.50;23.00;;;;;12.45;85.78;99566.22;6745418;19;2845004;-59
2021/09/13 05:37:10;;;;;;;;;21.50;21.50;;;;;12.67;85.42;99560.19;6746273;19;2852256;-59
2021/09/13 05:39:38;;;;;;;;;27.00;20.00;;;;;12.77;85.48;99566.63;6748235;19;2851215;-59
2021/09/13 05:42:07;;;;;;;;;29.00;22.33;;;;;12.82;85.45;99575.22;6745258;19;2840813;-58
2021/09/13 05:44:36;;;;;;;;;26.00;26.00;;;;;13.00;85.58;99572.16;6780179;19;2843915;-59
2021/09/13 05:47:05;;;;;;;;;26.50;23.00;;;;;13.12;86.10;99576.66;6744549;19;2842885;-59
2021/09/13 05:49:33;;;;;;;;;22.50;20.00;;;;;13.43;85.45;99571.69;6744177;19;2824156;-59
2021/09/13 05:52:02;;;;;;;;;28.00;25.00;;;;;13.97;82.78;99580.09;6743259;19;2841872;-59
2021/09/13 05:54:30;;;;;;;;;24.00;20.00;;;;;14.24;81.06;99577.09;6744254;19;2841844;-59
2021/09/13 05:56:59;;;;;;;;;22.67;22.33;;;;;14.24;81.20;99576.22;6744842;19;2839770;-59
2021/09/13 05:59:29;;;;;;;;;25.67;24.67;;;;;14.37;81.05;99581.53;6780502;19;2846007;-59
2021/09/13 06:01:58;;;;;;;;;31.00;25.00;;;;;14.50;80.92;99576.88;6778106;19;2852301;-59
2021/09/13 06:04:32;;;;;;;;;23.67;22.00;;;;;14.79;80.18;99577.25;6786417;19;3559607;-59
2021/09/13 06:07:01;;;;;;;;;23.00;22.00;;;;;15.01;79.73;99576.38;6778244;19;2841868;-59
2021/09/13 06:09:29;;;;;;;;;24.00;21.33;;;;;16.15;75.68;99583.13;6752930;19;3561603;-59
2021/09/13 06:11:58;;;;;;;;;24.00;20.50;;;;;16.44;73.14;99589.56;6776681;19;2841836;-59
2021/09/13 06:14:27;;;;;;;;;22.67;22.33;;;;;17.78;68.30;99585.66;6745566;19;2846006;-59
2021/09/13 06:16:55;;;;;;;;;17.50;16.00;;;;;18.71;63.97;99588.66;6784659;19;2823129;-58
2021/09/13 06:19:23;;;;;;;;;24.50;19.00;;;;;18.30;65.09;99590.78;6744037;19;2842902;-59
2021/09/13 06:21:52;;;;;;;;;24.00;21.50;;;;;22.68;50.44;99603.38;6745959;19;2840838;-59
2021/09/13 06:24:20;;;;;;;;;15.33;15.33;;;;;23.86;46.24;99617.97;6750630;19;2803288;-60
2021/09/13 06:26:48;;;;;;;;;17.33;16.33;;;;;23.53;46.94;99613.69;6780710;19;2481438;-59
2021/09/13 06:29:17;;;;;;;;;19.50;17.00;;;;;23.96;46.11;99619.59;6780088;19;2833527;-59
2021/09/13 06:31:46;;;;;;;;;15.67;15.67;;;;;20.90;52.42;99618.25;6746281;19;3557456;-59
2021/09/13 06:34:16;;;;;;;;;14.33;14.33;;;;;18.37;60.23;99614.50;6742389;19;3537670;-60
2021/09/13 06:36:45;;;;;;;;;17.00;16.00;;;;;17.69;63.87;99609.13;6744530;19;3557476;-59
2021/09/13 06:39:14;;;;;;;;;24.00;20.00;;;;;17.45;65.74;99611.34;6745371;19;2830460;-59
2021/09/13 06:41:41;;;;;;;;;14.00;14.00;;;;;17.51;65.80;99606.22;6747443;19;2489799;-59
2021/09/13 06:44:10;;;;;;;;;17.67;16.00;;;;;17.87;66.12;99603.84;6745305;19;3554448;-59
2021/09/13 06:46:43;;;;;;;;;14.00;14.00;;;;;18.01;63.19;99609.84;6754781;19;2800867;-59
2021/09/13 06:49:12;;;;;;;;;14.50;12.50;;;;;18.36;62.60;99610.09;6751029;19;2796004;-59
2021/09/13 06:51:40;;;;;;;;;15.00;15.00;;;;;18.77;62.24;99607.13;6742571;19;2803337;-59
2021/09/13 06:54:09;;;;;;;;;14.33;14.33;;;;;19.17;61.10;99612.25;6745246;19;3535543;-58
2021/09/13 06:56:36;;;;;;;;;15.00;15.00;;;;;19.17;59.92;99603.22;6753467;19;2804369;-59
2021/09/13 06:59:05;;;;;;;;;15.33;13.00;;;;;19.49;60.42;99611.78;6747678;19;3529450;-59
2021/09/13 07:01:33;;;;;;;;;16.67;12.33;;;;;19.66;60.00;99601.03;6779694;19;3514818;-59
2021/09/13 07:04:02;;;;;;;;;13.33;13.33;;;;;19.89;58.53;99605.06;6792518;19;2489779;-59
2021/09/13 07:06:31;;;;;;;;;11.00;11.00;;;;;19.87;58.70;99614.41;6795507;19;2803288;-59
2021/09/13 07:08:59;;;;;;;;;14.00;13.00;;;;;20.33;57.71;99609.69;6796638;19;2788717;-58
2021/09/13 07:11:27;;;;;;;;;14.33;13.33;;;;;20.47;56.21;99616.44;6784795;19;3516838;-59
2021/09/13 07:13:56;;;;;;;;;15.33;13.00;;;;;20.70;55.58;99623.09;6786556;19;3526175;-59
2021/09/13 07:16:24;;;;;;;;;11.67;11.33;;;;;22.01;52.47;99634.53;6796041;19;2805407;-59
2021/09/13 07:18:53;;;;;;;;;10.00;10.00;;;;;26.61;41.92;99647.16;6795604;19;2771033;-59
2021/09/13 07:21:21;;;;;;;;;16.00;12.00;;;;;23.54;47.60;99637.31;6797387;19;2802328;-59
2021/09/13 07:23:49;;;;;;;;;11.67;11.67;;;;;21.81;54.10;99638.59;6782394;19;3520967;-59
2021/09/13 07:26:18;;;;;;;;;10.00;10.00;;;;;21.56;54.50;99630.31;6795274;19;2788694;-59
2021/09/13 07:28:46;;;;;;;;;12.00;10.67;;;;;21.59;55.82;99642.78;6796824;19;2788801;-59
2021/09/13 07:31:14;;;;;;;;;16.00;14.33;;;;;21.85;55.53;99642.69;6786623;19;3568938;-59
2021/09/13 07:33:42;;;;;;;;;11.00;11.00;;;;;21.39;56.09;99639.50;6761343;19;2778337;-59
2021/09/13 07:36:11;;;;;;;;;13.00;11.00;;;;;21.77;55.52;99645.41;6787305;19;3511597;-59
2021/09/13 07:38:39;;;;;;;;;16.00;14.67;;;;;21.82;55.98;99651.22;6786404;19;3526176;-59
2021/09/13 07:41:08;;;;;;;;;12.33;11.67;;;;;22.13;55.72;99652.28;6794635;19;2787731;-58
2021/09/13 07:43:36;;;;;;;;;11.00;11.00;;;;;22.07;55.82;99655.72;6795414;19;2789778;-60
2021/09/13 07:46:04;;;;;;;;;13.67;13.33;;;;;22.27;55.10;99655.41;6783876;19;3538711;-59
2021/09/13 07:48:33;;;;;;;;;14.00;12.67;;;;;22.73;54.42;99655.72;6762023;19;2806445;-60
2021/09/13 07:51:05;;;;;;;;;11.33;11.33;;;;;23.00;53.95;99658.06;6785400;19;3515795;-59
2021/09/13 07:53:33;;;;;;;;;10.33;10.33;;;;;22.97;53.99;99652.97;6783059;19;3511694;-59
2021/09/13 07:56:01;;;;;;;;;12.33;9.33;;;;;22.61;54.57;99657.09;6796964;19;2776198;-59
2021/09/13 07:58:30;;;;;;;;;14.33;13.00;;;;;22.99;53.47;99656.38;6782845;19;3524089;-59
2021/09/13 08:00:58;;;;;;;;;11.33;11.33;;;;;23.49;51.70;99664.44;6759111;19;2793914;-59
2021/09/13 08:03:27;;;;;;;;;15.00;13.33;;;;;23.90;51.37;99661.47;6789452;19;2481422;-59
2021/09/13 08:05:55;;;;;;;;;14.00;12.00;;;;;24.08;51.00;99662.88;6782958;19;3518920;-59
2021/09/13 08:08:24;;;;;;;;;12.67;12.67;;;;;23.70;51.65;99670.16;6749195;19;3545986;-60
2021/09/13 08:10:53;;;;;;;;;9.00;8.60;;;;;23.31;52.61;99662.78;6783395;19;2771120;-59
2021/09/13 08:13:21;;;;;;;;;13.00;13.00;;;;;23.91;51.94;99668.66;6755280;19;2806421;-60
2021/09/13 08:15:50;;;;;;;;;10.00;10.00;;;;;24.48;49.77;99671.88;6783984;19;3498048;-59
2021/09/13 08:18:18;;;;;;;;;14.67;14.00;;;;;24.38;50.05;99678.63;6747992;19;3522105;-59
2021/09/13 08:20:47;;;;;;;;;15.00;14.00;;;;;24.39;49.77;99675.69;6754318;19;2485597;-60
2021/09/13 08:23:15;;;;;;;;;13.67;12.67;;;;;24.65;49.79;99675.34;6783514;19;3523091;-59
2021/09/13 08:25:43;;;;;;;;;12.33;12.00;;;;;24.60;48.46;99677.78;6749338;19;3514746;-59
2021/09/13 08:28:17;;;;;;;;;12.33;12.33;;;;;24.66;49.13;99676.19;6755698;19;2809534;-59
2021/09/13 08:30:47;;;;;;;;;11.33;11.33;;;;;24.99;48.13;99671.22;6794239;19;2787691;-59
2021/09/13 08:33:16;;;;;;;;;14.00;11.00;;;;;24.98;48.23;99680.50;6781504;19;3529423;-60
2021/09/13 08:35:46;;;;;;;;;14.33;14.00;;;;;24.95;48.59;99675.38;6752055;19;3533499;-60
2021/09/13 08:38:14;;;;;;;;;14.00;14.00;;;;;25.09;48.54;99671.81;6753488;19;2490214;-59
2021/09/13 08:40:43;;;;;;;;;14.00;12.00;;;;;24.79;49.05;99681.03;6787895;19;2487699;-60
2021/09/13 08:43:12;;;;;;;;;12.67;12.67;;;;;24.96;48.62;99671.56;6792851;19;2481446;-59
2021/09/13 08:53:24;;;;;;;;;15.00;13.00;;;;;25.63;47.40;99678.91;6789956;19;2806445;-59
2021/09/13 08:55:52;;;;;;;;;15.00;13.00;;;;;25.75;47.75;99680.13;6782395;19;3526219;-59
2021/09/13 08:58:23;;;;;;;;;15.00;14.00;;;;;25.72;47.21;99680.47;6750779;19;2806405;-59
2021/09/13 09:00:53;;;;;;;;;15.00;14.00;;;;;25.77;47.27;99682.66;6748291;19;3529296;-60
2021/09/13 09:03:22;;;;;;;;;13.67;13.67;;;;;25.73;47.77;99682.19;6747717;19;3533480;-59
2021/09/13 09:05:53;;;;;;;;;13.33;13.33;;;;;26.27;47.00;99684.50;6757105;19;2801209;-59
2021/09/13 09:08:31;;;;;;;;;15.33;13.00;;;;;26.44;46.82;99678.75;6790977;19;2806413;-58
2021/09/13 09:11:05;;;;;;;;;15.00;15.00;;;;;26.31;46.59;99676.72;6783097;19;3523067;-59
2021/09/13 09:13:37;;;;;;;;;12.00;12.00;;;;;26.34;46.50;99678.25;6749626;19;3534575;-58
2021/09/13 09:16:05;;;;;;;;;14.00;12.00;;;;;26.52;46.37;99672.31;6749973;19;3528299;-59
2021/09/13 09:18:42;;;;;;;;;15.33;13.67;;;;;26.87;46.21;99676.81;6750499;19;2477291;-59
2021/09/13 09:21:33;;;;;;;;;14.33;14.00;;;;;26.74;46.28;99673.13;6784405;19;3522017;-59
2021/09/13 09:24:04;;;;;;;;;14.67;14.67;;;;;26.67;45.72;99670.28;6754464;19;3533472;-57
2021/09/13 09:26:32;;;;;;;;;14.00;14.00;;;;;27.20;44.96;99681.75;6785341;19;2481418;-59
2021/09/13 09:29:01;;;;;;;;;14.67;11.67;;;;;26.45;45.77;99678.53;6779807;19;3499098;-59
2021/09/13 09:31:36;;;;;;;;;12.00;12.00;;;;;26.83;45.68;99671.91;6781371;19;3524112;-59
2021/09/13 09:34:13;;;;;;;;;14.00;13.00;;;;;26.57;46.54;99664.25;6780014;19;3529351;-59
2021/09/13 09:37:01;;;;;;;;;18.33;13.00;;;;;27.19;45.16;99666.25;6754816;19;2481422;-60
2021/09/13 09:39:41;;;;;;;;;13.50;13.50;;;;;27.07;45.04;99667.84;6781898;19;2804370;-58
2021/09/13 09:42:14;;;;;;;;;12.33;12.00;;;;;26.87;45.64;99671.31;6752187;19;3519255;-59
2021/09/13 09:44:45;;;;;;;;;12.33;12.00;;;;;27.10;45.54;99664.69;6744377;19;3527214;-59
2021/09/13 09:47:15;;;;;;;;;14.33;13.00;;;;;27.87;44.77;99662.78;6744917;19;3527352;-59
2021/09/13 09:49:53;;;;;;;;;13.00;13.00;;;;;27.52;45.27;99657.31;6754938;19;2481450;-59
2021/09/13 09:52:42;;;;;;;;;13.33;13.33;;;;;28.28;44.34;99656.25;6780407;19;3520992;-59
2021/09/13 09:55:20;;;;;;;;;11.33;11.33;;;;;27.95;44.65;99662.59;6783348;19;3517161;-59
2021/09/13 09:58:10;;;;;;;;;14.67;13.00;;;;;27.94;43.91;99655.38;6743946;19;3521098;-59
2021/09/13 10:00:39;;;;;;;;;10.33;10.33;;;;;27.96;44.60;99654.09;6744877;19;3534573;-59
2021/09/13 10:03:08;;;;;;;;;12.00;11.00;;;;;27.57;43.99;99660.31;6744988;19;2782460;-59
2021/09/13 10:05:37;;;;;;;;;13.00;13.00;;;;;27.48;43.19;99650.50;6791535;19;2791884;-59
2021/09/13 10:08:06;;;;;;;;;13.00;13.00;;;;;28.30;41.89;99656.91;6787417;19;3515804;-58
2021/09/13 10:10:34;;;;;;;;;15.00;12.00;;;;;28.62;42.03;99650.59;6788957;19;2798120;-57
2021/09/13 10:13:03;;;;;;;;;12.00;12.00;;;;;28.55;41.80;99652.50;6789132;19;2803289;-57
2021/09/13 10:15:31;;;;;;;;;11.67;11.67;;;;;28.46;42.06;99648.25;6790021;19;2801213;-58
2021/09/13 10:18:00;;;;;;;;;9.67;9.67;;;;;28.57;42.17;99649.50;6779767;19;3490760;-58
2021/09/13 10:20:29;;;;;;;;;15.00;14.00;;;;;28.69;41.68;99644.22;6778542;19;2798115;-58
2021/09/13 10:22:58;;;;;;;;;11.33;11.33;;;;;28.27;42.76;99649.06;6745682;19;3515807;-59
2021/09/13 10:25:31;;;;;;;;;15.67;13.67;;;;;28.69;41.21;99642.28;6754814;19;2799157;-59
2021/09/13 10:28:06;;;;;;;;;13.00;11.33;;;;;28.50;42.19;99641.25;6780827;19;3532422;-58
2021/09/13 10:30:54;;;;;;;;;13.33;12.33;;;;;28.67;41.13;99637.00;6748045;19;3514750;-58
2021/09/13 10:33:58;;;;;;;;;13.67;12.00;;;;;28.35;41.12;99635.03;6744775;19;3531380;-59
2021/09/13 10:37:06;;;;;;;;;14.00;12.00;;;;;28.62;41.54;99641.44;6755123;19;2481438;-58
2021/09/13 10:40:16;;;;;;;;;12.00;11.00;;;;;28.74;41.51;99638.91;6778436;19;3505387;-58
2021/09/13 10:42:51;;;;;;;;;13.33;12.33;;;;;28.86;40.17;99637.19;6753210;19;2785604;-58
2021/09/13 10:45:25;;;;;;;;;14.00;13.00;;;;;28.89;40.55;99634.84;6778924;19;3513799;-58
2021/09/13 10:47:57;;;;;;;;;12.00;11.00;;;;;29.07;40.13;99634.22;6746565;19;2787699;-58
2021/09/13 10:50:46;;;;;;;;;13.33;11.00;;;;;29.00;40.91;99638.00;6779368;19;3507458;-57
2021/09/13 10:53:18;;;;;;;;;15.00;11.00;;;;;28.95;40.46;99635.03;6776983;19;3531424;-58
2021/09/13 10:56:07;;;;;;;;;13.67;12.00;;;;;28.82;41.57;99630.38;6745040;19;3511593;-58
2021/09/13 10:58:44;;;;;;;;;11.50;11.50;;;;;29.23;40.13;99632.03;6747845;19;2802266;-57
2021/09/13 11:01:27;;;;;;;;;12.00;9.33;;;;;28.61;41.19;99634.22;6743342;19;3492852;-57
2021/09/13 11:04:09;;;;;;;;;11.33;11.33;;;;;28.82;40.67;99631.22;6784424;19;2483533;-58
2021/09/13 11:06:46;;;;;;;;;12.67;11.00;;;;;29.10;39.37;99638.47;6779055;19;3513700;-57
2021/09/13 11:09:21;;;;;;;;;11.33;11.33;;;;;28.93;40.71;99635.25;6778729;19;3524089;-58
2021/09/13 11:11:57;;;;;;;;;12.33;11.33;;;;;29.36;39.67;99634.75;6747195;19;3517858;-57
2021/09/13 11:14:28;;;;;;;;;10.00;10.00;;;;;29.45;39.30;99638.97;6777610;19;3505367;-58
2021/09/13 11:17:02;;;;;;;;;11.00;11.00;;;;;29.49;39.77;99643.00;6789204;19;2793946;-58
2021/09/13 11:19:31;;;;;;;;;9.67;9.67;;;;;29.62;39.68;99627.41;6779307;19;3489735;-58
2021/09/13 11:22:05;;;;;;;;;7.20;6.80;;;;;29.24;39.87;99617.97;6810731;19;2737054;-57
2021/09/13 11:24:39;;;;;;;;;10.00;10.00;;;;;29.69;39.11;99617.19;6745262;19;2793939;-58
2021/09/13 11:27:13;;;;;;;;;9.67;9.67;;;;;28.86;40.24;99620.63;6780115;19;3494959;-58